Portada
METAR-TAF:

METAR-TAF

Aeroports :

Ranchi, Índia

latitud: 23-18-51N, longitud: 85-19-18E, altitud: 646 m

Observació

L'informe es va fer fa 36 minuts, a les 02:30 UTC
Vent calma
Temperatura 16°C
Humitat 77%
Pressió 1019 hPa
Visibilitat: 1800 m
boirina

METAR: VERC 150230Z 00000KT 1800 BR NSC 16/12 Q1019 NOSIG

Hora: 08:36 (03:06 UTC)

Pronòstic

L'informe es va fer fa 4 hores i 6 minuts, a les 23:00 UTC
Pronòstic vàlid del 15 a les 00 UTC al 15 a les 09 UTC
Vent kt del Nord
Visibilitat: 1800 m
boirina
Evolucionant progressivament
l' 15 a les 03 UTC al 15 a les 05 UTC
Visibilitat: 2000 m
calitja, boirina
Evolucionant progressivament
l' 15 a les 07 UTC al 15 a les 09 UTC
Visibilitat: 4000 m
calitja

TAF: VERC 142300Z 1500/1509 00000KT 1800 BR NSC BECMG 1503/1505 2000 HZ BR BECMG 1507/1509 4000 HZ

Observacions i pronòstics meteorològics de més de 4000 aeroports (METAR i TAF).

Les estacions disponibles són els punts grocs i vermells al mapa.

Posi el ratolí al punt desitjat per veure el nom de l'estació.

Feu clic per veure les observacions i els pronòstics meteorològics.

Per canviar el mapa: feu clic els botons verds amb una creu de color negre per apropar; al botó verd amb un guió per allunyar la imatge; o en les fletxes verdes per a mapes adjacents.


METAR-TAF: